createdAt,value
2022-10-02T00:00:39.041Z,12.83
2022-10-02T00:03:32.329Z,12.83
2022-10-02T00:06:06.821Z,12.83
2022-10-02T00:08:37.781Z,12.79
2022-10-02T00:11:07.068Z,12.80
2022-10-02T00:13:46.237Z,12.76
2022-10-02T00:16:22.654Z,12.71
2022-10-02T00:18:50.623Z,12.59
2022-10-02T00:21:40.189Z,12.67
2022-10-02T00:24:11.844Z,12.63
2022-10-02T00:26:57.041Z,12.57
2022-10-02T00:29:49.316Z,12.62
2022-10-02T00:32:26.078Z,12.65
2022-10-02T00:35:24.962Z,12.69
2022-10-02T00:37:57.056Z,12.73
2022-10-02T00:40:51.398Z,12.71
2022-10-02T00:43:27.258Z,12.70
2022-10-02T00:46:04.338Z,12.71
2022-10-02T00:48:48.553Z,12.73
2022-10-02T00:51:40.001Z,12.72
2022-10-02T00:54:21.620Z,12.71
2022-10-02T00:57:19.903Z,12.67
2022-10-02T01:00:08.769Z,12.69
2022-10-02T01:03:12.813Z,12.62
2022-10-02T01:05:40.177Z,12.59
2022-10-02T01:08:07.871Z,12.60
2022-10-02T01:10:37.118Z,12.62
2022-10-02T01:13:04.929Z,12.58
2022-10-02T01:15:42.576Z,12.47
2022-10-02T01:18:09.896Z,12.39
2022-10-02T01:20:41.888Z,12.33
2022-10-02T01:23:15.791Z,12.28
2022-10-02T01:25:42.865Z,12.22
2022-10-02T01:28:11.225Z,12.17
2022-10-02T01:30:40.190Z,12.16
2022-10-02T01:33:07.463Z,12.16
2022-10-02T01:35:37.356Z,11.98
2022-10-02T01:38:07.757Z,12.01
2022-10-02T01:40:36.904Z,11.87
2022-10-02T01:43:17.329Z,11.82
2022-10-02T01:45:59.409Z,11.76
2022-10-02T01:48:34.848Z,11.68
2022-10-02T01:51:10.058Z,11.62
2022-10-02T01:53:45.539Z,11.49
2022-10-02T01:56:31.376Z,11.40
2022-10-02T01:59:10.664Z,11.46
2022-10-02T02:02:03.690Z,11.54
2022-10-02T02:04:36.854Z,11.54
2022-10-02T02:07:25.986Z,11.51
2022-10-02T02:10:13.303Z,11.47
2022-10-02T02:12:48.412Z,11.38
2022-10-02T02:15:29.870Z,11.36
2022-10-02T02:18:04.238Z,11.27
2022-10-02T02:20:38.757Z,11.18
2022-10-02T02:23:11.078Z,11.08
2022-10-02T02:25:40.689Z,11.09
2022-10-02T02:28:12.441Z,11.07
2022-10-02T02:30:43.309Z,11.01
2022-10-02T02:33:25.584Z,11.03
2022-10-02T02:35:56.906Z,11.03
2022-10-02T02:38:31.171Z,10.97
2022-10-02T02:41:03.208Z,10.89
2022-10-02T02:43:35.762Z,10.89
2022-10-02T02:46:20.270Z,10.79
2022-10-02T02:48:52.352Z,10.82
2022-10-02T02:51:25.288Z,10.83
2022-10-02T02:53:57.539Z,10.85
2022-10-02T02:56:27.541Z,10.84
2022-10-02T02:59:01.647Z,10.85
2022-10-02T03:01:28.647Z,10.90
2022-10-02T03:03:55.409Z,10.86
2022-10-02T03:06:38.750Z,10.80
2022-10-02T03:09:10.499Z,10.79
2022-10-02T03:11:58.988Z,10.75
2022-10-02T03:14:52.897Z,10.73
2022-10-02T03:17:58.553Z,10.70
2022-10-02T03:20:50.053Z,10.56
2022-10-02T03:23:30.529Z,10.50
2022-10-02T03:26:08.722Z,10.38
2022-10-02T03:28:56.080Z,10.33
2022-10-02T03:31:27.708Z,10.28
2022-10-02T03:33:56.943Z,10.26
2022-10-02T03:36:25.337Z,10.17
2022-10-02T03:39:25.211Z,10.11
2022-10-02T03:41:46.813Z,10.07
2022-10-02T03:44:13.552Z,9.95
2022-10-02T03:46:40.673Z,9.93
2022-10-02T03:49:07.648Z,9.84
2022-10-02T03:51:34.419Z,9.77
2022-10-02T03:54:01.240Z,9.68
2022-10-02T03:56:41.541Z,9.54
2022-10-02T03:59:16.929Z,9.57
2022-10-02T04:01:50.734Z,9.56
2022-10-02T04:04:27.084Z,9.48
2022-10-02T04:07:00.918Z,9.43
2022-10-02T04:09:47.297Z,9.39
2022-10-02T04:12:19.575Z,9.44
2022-10-02T04:15:03.145Z,9.38
2022-10-02T04:17:44.258Z,9.29
2022-10-02T04:20:23.860Z,9.18
2022-10-02T04:23:17.469Z,8.99
2022-10-02T04:25:49.661Z,9.01
2022-10-02T04:28:23.247Z,8.93
2022-10-02T04:30:53.006Z,8.92
2022-10-02T04:33:22.613Z,8.88
2022-10-02T04:36:07.959Z,8.84
2022-10-02T04:38:59.339Z,8.80
2022-10-02T04:42:30.482Z,8.80
2022-10-02T04:45:34.544Z,8.75
2022-10-02T04:48:22.737Z,8.66
2022-10-02T04:51:24.756Z,8.58
2022-10-02T04:54:04.379Z,8.49
2022-10-02T04:56:43.271Z,8.47
2022-10-02T04:59:47.108Z,8.44
2022-10-02T05:02:32.466Z,8.43
2022-10-02T05:05:21.685Z,8.36
2022-10-02T05:08:09.951Z,8.41
2022-10-02T05:10:55.068Z,8.48
2022-10-02T05:13:52.651Z,8.51
2022-10-02T05:16:41.664Z,8.57
2022-10-02T05:19:20.720Z,8.62
2022-10-02T05:22:15.115Z,8.65
2022-10-02T05:24:58.253Z,8.63
2022-10-02T05:28:11.721Z,8.60
2022-10-02T05:30:48.448Z,8.62
2022-10-02T05:33:24.270Z,8.64
2022-10-02T05:36:15.673Z,8.63
2022-10-02T05:38:56.310Z,8.59
2022-10-02T05:41:40.963Z,8.50
2022-10-02T05:44:15.200Z,8.53
2022-10-02T05:46:51.308Z,8.48
2022-10-02T05:49:20.395Z,8.46
2022-10-02T05:52:07.553Z,8.54
2022-10-02T05:54:54.048Z,8.74
2022-10-02T05:57:42.277Z,8.84
2022-10-02T06:00:31.862Z,9.05
2022-10-02T06:03:00.857Z,9.21
2022-10-02T06:05:43.848Z,9.23
2022-10-02T06:08:16.002Z,9.41
2022-10-02T06:10:54.249Z,9.71
2022-10-02T06:13:27.150Z,10.08
2022-10-02T06:16:09.221Z,10.30
2022-10-02T06:18:40.685Z,10.46
2022-10-02T06:21:35.912Z,10.62
2022-10-02T06:24:11.828Z,10.77
2022-10-02T06:26:45.976Z,10.90
2022-10-02T06:29:42.495Z,10.98
2022-10-02T06:32:24.816Z,11.26
2022-10-02T06:34:53.019Z,11.58
2022-10-02T06:38:02.329Z,11.88
2022-10-02T06:40:44.430Z,11.88
2022-10-02T06:43:45.542Z,12.16
2022-10-02T06:46:25.389Z,12.66
2022-10-02T06:49:12.193Z,13.07
2022-10-02T06:52:06.364Z,12.49
2022-10-02T06:54:44.948Z,12.56
2022-10-02T06:57:22.529Z,13.01
2022-10-02T07:00:00.162Z,13.37
2022-10-02T07:02:56.586Z,13.37
2022-10-02T07:05:53.401Z,13.17
2022-10-02T07:08:44.767Z,13.53
2022-10-02T07:11:32.667Z,13.93
2022-10-02T07:14:37.246Z,14.40
2022-10-02T07:17:22.554Z,14.87
2022-10-02T07:20:23.461Z,15.29
2022-10-02T07:22:58.169Z,15.75
2022-10-02T07:25:33.632Z,16.07
2022-10-02T07:28:13.478Z,16.47
2022-10-02T07:31:00.610Z,16.54
2022-10-02T07:33:47.208Z,16.61
2022-10-02T07:36:29.392Z,16.50
2022-10-02T07:39:31.445Z,16.36
2022-10-02T07:42:07.056Z,16.44
2022-10-02T07:45:04.783Z,16.42
2022-10-02T07:47:34.236Z,16.49
2022-10-02T07:50:13.465Z,16.73
2022-10-02T07:52:40.165Z,16.91
2022-10-02T07:55:11.557Z,17.10
2022-10-02T07:58:05.611Z,17.24
2022-10-02T08:00:38.657Z,17.39
2022-10-02T08:03:12.830Z,17.53
2022-10-02T08:05:44.696Z,17.53
2022-10-02T08:08:20.457Z,17.55
2022-10-02T08:10:52.899Z,17.53
2022-10-02T08:13:25.308Z,17.41
2022-10-02T08:15:56.035Z,17.36
2022-10-02T08:18:47.134Z,17.24
2022-10-02T08:21:18.850Z,17.11
2022-10-02T08:23:49.251Z,16.98
2022-10-02T08:26:21.436Z,16.90
2022-10-02T08:29:05.806Z,16.89
2022-10-02T08:31:33.455Z,16.92
2022-10-02T08:34:19.429Z,16.93
2022-10-02T08:37:04.939Z,16.97
2022-10-02T08:39:51.339Z,16.97
2022-10-02T08:42:50.161Z,16.96
2022-10-02T08:45:22.820Z,16.92
2022-10-02T08:48:31.369Z,16.86
2022-10-02T08:51:26.473Z,16.80
2022-10-02T08:54:30.744Z,16.70
2022-10-02T08:57:08.754Z,16.67
2022-10-02T08:59:54.617Z,16.55
2022-10-02T09:02:43.239Z,16.47
2022-10-02T09:05:31.419Z,16.46
2022-10-02T09:08:13.372Z,16.45
2022-10-02T09:11:19.612Z,16.44
2022-10-02T09:14:11.748Z,16.38
2022-10-02T09:16:50.746Z,16.32
2022-10-02T09:19:32.888Z,16.18
2022-10-02T09:22:46.443Z,16.06
2022-10-02T09:25:28.512Z,15.98
2022-10-02T09:28:18.249Z,15.91
2022-10-02T09:31:16.026Z,15.89
2022-10-02T09:34:07.873Z,15.93
2022-10-02T09:37:09.432Z,15.97
2022-10-02T09:40:20.947Z,16.00
2022-10-02T09:43:28.544Z,16.06
2022-10-02T09:46:20.129Z,16.07
2022-10-02T09:49:25.666Z,16.13
2022-10-02T09:51:55.575Z,16.15
2022-10-02T09:54:51.248Z,16.16
2022-10-02T09:57:40.340Z,16.24
2022-10-02T10:00:34.613Z,16.26
2022-10-02T10:03:22.825Z,16.32
2022-10-02T10:05:50.692Z,16.33
2022-10-02T10:08:44.781Z,16.37
2022-10-02T10:11:38.849Z,16.38
2022-10-02T10:14:18.517Z,16.43
2022-10-02T10:17:05.826Z,16.51
2022-10-02T10:20:08.049Z,16.50
2022-10-02T10:23:01.851Z,16.45
2022-10-02T10:26:08.934Z,16.46
2022-10-02T10:29:07.952Z,16.45
2022-10-02T10:32:21.357Z,16.40
2022-10-02T10:35:29.450Z,16.50
2022-10-02T10:38:35.939Z,16.58
2022-10-02T10:41:58.065Z,16.67
2022-10-02T10:45:02.316Z,16.73
2022-10-02T10:47:46.144Z,16.77
2022-10-02T10:50:39.407Z,16.83
2022-10-02T10:53:19.245Z,16.84
2022-10-02T10:56:19.470Z,16.82
2022-10-02T10:59:21.862Z,16.88
2022-10-02T11:02:14.024Z,16.89
2022-10-02T11:05:03.284Z,16.97
2022-10-02T11:07:52.256Z,17.03
2022-10-02T11:10:38.106Z,17.04
2022-10-02T11:13:10.244Z,16.98
2022-10-02T11:16:06.706Z,16.96
2022-10-02T11:19:07.329Z,16.99
2022-10-02T11:21:49.018Z,16.95
2022-10-02T11:24:45.126Z,17.00
2022-10-02T11:27:23.706Z,17.15
2022-10-02T11:30:26.472Z,17.25
2022-10-02T11:33:17.590Z,17.34
2022-10-02T11:36:01.252Z,17.52
2022-10-02T11:39:02.807Z,17.70
2022-10-02T11:41:43.839Z,17.85
2022-10-02T11:44:14.332Z,17.98
2022-10-02T11:47:14.817Z,17.91
2022-10-02T11:49:41.587Z,17.90
2022-10-02T11:52:48.547Z,17.92
2022-10-02T11:55:28.721Z,17.99
2022-10-02T11:58:18.511Z,18.07
2022-10-02T12:00:45.374Z,18.11
2022-10-02T12:03:36.530Z,18.16
2022-10-02T12:06:30.382Z,18.22
2022-10-02T12:09:02.756Z,18.23
2022-10-02T12:12:17.319Z,18.20
2022-10-02T12:15:15.119Z,18.31
2022-10-02T12:17:53.858Z,18.59
2022-10-02T12:20:59.631Z,18.95
2022-10-02T12:23:59.894Z,19.17
2022-10-02T12:26:45.128Z,19.22
2022-10-02T12:29:25.384Z,19.77
2022-10-02T12:32:45.960Z,20.50
2022-10-02T12:35:21.570Z,21.10
2022-10-02T12:38:25.458Z,21.60
2022-10-02T12:41:08.674Z,22.22
2022-10-02T12:43:50.607Z,22.64
2022-10-02T12:46:42.199Z,22.86
2022-10-02T12:49:25.322Z,23.25
2022-10-02T12:52:30.528Z,23.47
2022-10-02T12:55:09.285Z,23.08
2022-10-02T12:57:55.468Z,22.64
2022-10-02T13:00:35.106Z,22.28
2022-10-02T13:03:34.420Z,22.12
2022-10-02T13:06:06.935Z,22.10
2022-10-02T13:08:35.344Z,22.33
2022-10-02T13:11:23.595Z,22.57
2022-10-02T13:14:18.040Z,22.83
2022-10-02T13:16:44.781Z,22.64
2022-10-02T13:19:32.127Z,22.52
2022-10-02T13:22:11.932Z,22.42
2022-10-02T13:24:59.657Z,22.34
2022-10-02T13:27:43.324Z,22.06
2022-10-02T13:30:24.154Z,21.84
2022-10-02T13:33:15.148Z,21.68
2022-10-02T13:36:20.043Z,21.53
2022-10-02T13:38:58.758Z,21.16
2022-10-02T13:41:47.793Z,21.02
2022-10-02T13:44:24.145Z,20.85
2022-10-02T13:47:27.002Z,20.63
2022-10-02T13:50:02.659Z,20.39
2022-10-02T13:52:44.876Z,20.24
2022-10-02T13:55:24.341Z,20.12
2022-10-02T13:58:15.896Z,20.08
2022-10-02T14:00:42.597Z,20.07
2022-10-02T14:03:15.502Z,20.07
2022-10-02T14:05:50.960Z,20.14
2022-10-02T14:08:39.632Z,20.52
2022-10-02T14:11:09.065Z,21.14
2022-10-02T14:14:03.673Z,21.76
2022-10-02T14:16:33.670Z,22.38
2022-10-02T14:19:20.163Z,22.76
2022-10-02T14:22:08.947Z,23.14
2022-10-02T14:25:09.274Z,23.58
2022-10-02T14:28:02.480Z,23.90
2022-10-02T14:30:55.136Z,24.11
2022-10-02T14:33:43.700Z,24.39
2022-10-02T14:36:25.335Z,24.63
2022-10-02T14:38:55.075Z,24.73
2022-10-02T14:41:40.501Z,24.81
2022-10-02T14:44:23.524Z,24.96
2022-10-02T14:47:12.072Z,25.09
2022-10-02T14:50:08.166Z,24.96
2022-10-02T14:52:53.559Z,24.23
2022-10-02T14:55:30.168Z,23.59
2022-10-02T14:58:39.352Z,22.72
2022-10-02T15:01:22.937Z,22.23
2022-10-02T15:04:11.832Z,21.71
2022-10-02T15:06:57.019Z,21.36
2022-10-02T15:09:30.067Z,21.26
2022-10-02T15:12:08.509Z,21.16
2022-10-02T15:15:03.294Z,21.43
2022-10-02T15:17:53.572Z,21.75
2022-10-02T15:20:23.921Z,21.89
2022-10-02T15:23:04.240Z,21.72
2022-10-02T15:25:48.568Z,21.61
2022-10-02T15:28:35.315Z,21.34
2022-10-02T15:31:35.895Z,21.02
2022-10-02T15:34:14.761Z,20.98
2022-10-02T15:36:41.399Z,20.65
2022-10-02T15:39:18.257Z,20.26
2022-10-02T15:42:03.144Z,19.88
2022-10-02T15:44:38.489Z,19.55
2022-10-02T15:47:50.311Z,19.16
2022-10-02T15:50:16.953Z,18.82
2022-10-02T15:53:03.544Z,18.64
2022-10-02T15:55:40.253Z,18.48
2022-10-02T15:58:37.658Z,18.32
2022-10-02T16:01:04.425Z,18.24
2022-10-02T16:03:41.636Z,18.14
2022-10-02T16:06:32.977Z,17.98
2022-10-02T16:09:14.696Z,17.55
2022-10-02T16:11:56.683Z,17.08
2022-10-02T16:14:36.867Z,16.81
2022-10-02T16:17:37.032Z,16.61
2022-10-02T16:20:27.471Z,16.40
2022-10-02T16:23:21.879Z,16.36
2022-10-02T16:26:07.018Z,16.37
2022-10-02T16:29:03.879Z,16.39
2022-10-02T16:31:39.523Z,16.37
2022-10-02T16:34:38.507Z,16.37
2022-10-02T16:37:22.180Z,16.38
2022-10-02T16:39:54.844Z,16.29
2022-10-02T16:42:43.224Z,16.24
2022-10-02T16:45:34.553Z,16.21
2022-10-02T16:48:13.670Z,16.11
2022-10-02T16:50:46.456Z,16.00
2022-10-02T16:53:47.297Z,15.79
2022-10-02T16:56:20.972Z,15.67
2022-10-02T16:59:06.140Z,15.54
2022-10-02T17:02:05.841Z,15.46
2022-10-02T17:05:27.119Z,15.42
2022-10-02T17:08:10.558Z,15.32
2022-10-02T17:11:20.606Z,15.21
2022-10-02T17:14:14.735Z,15.10
2022-10-02T17:17:08.599Z,14.97
2022-10-02T17:19:55.504Z,14.99
2022-10-02T17:22:42.196Z,15.05
2022-10-02T17:25:22.132Z,15.04
2022-10-02T17:27:56.605Z,15.02
2022-10-02T17:30:27.314Z,15.01
2022-10-02T17:33:13.366Z,14.94
2022-10-02T17:35:52.620Z,14.84
2022-10-02T17:38:30.282Z,14.80
2022-10-02T17:41:11.795Z,14.77
2022-10-02T17:43:41.105Z,14.73
2022-10-02T17:46:19.668Z,14.71
2022-10-02T17:48:58.045Z,14.57
2022-10-02T17:51:53.546Z,14.56
2022-10-02T17:54:51.239Z,14.51
2022-10-02T17:57:27.036Z,14.47
2022-10-02T18:00:11.285Z,14.49
2022-10-02T18:02:51.156Z,14.54
2022-10-02T18:05:31.979Z,14.50
2022-10-02T18:08:14.453Z,14.55
2022-10-02T18:11:01.418Z,14.49
2022-10-02T18:13:49.460Z,14.27
2022-10-02T18:17:10.240Z,14.07
2022-10-02T18:20:04.329Z,13.95
2022-10-02T18:22:55.649Z,13.84
2022-10-02T18:25:29.852Z,13.74
2022-10-02T18:28:23.909Z,13.75
2022-10-02T18:30:56.928Z,13.73
2022-10-02T18:33:37.116Z,13.70
2022-10-02T18:36:50.477Z,13.72
2022-10-02T18:39:26.107Z,13.71
2022-10-02T18:41:58.356Z,13.69
2022-10-02T18:44:38.129Z,13.69
2022-10-02T18:47:13.503Z,13.67
2022-10-02T18:49:59.181Z,13.68
2022-10-02T18:52:25.829Z,13.74
2022-10-02T18:55:23.709Z,13.76
2022-10-02T18:57:59.298Z,13.75
2022-10-02T19:00:39.695Z,13.79
2022-10-02T19:03:31.146Z,13.80
2022-10-02T19:06:11.365Z,13.82
2022-10-02T19:09:04.456Z,13.82
2022-10-02T19:11:43.986Z,13.83
2022-10-02T19:14:33.197Z,13.81
2022-10-02T19:17:05.098Z,13.80
2022-10-02T19:19:33.307Z,13.83
2022-10-02T19:22:07.985Z,13.80
2022-10-02T19:24:40.233Z,13.80
2022-10-02T19:27:13.975Z,13.81
2022-10-02T19:29:46.376Z,13.82
2022-10-02T19:32:21.753Z,13.82
2022-10-02T19:34:56.824Z,13.77
2022-10-02T19:37:26.854Z,13.78
2022-10-02T19:39:56.285Z,13.76
2022-10-02T19:42:29.898Z,13.77
2022-10-02T19:45:08.154Z,13.73
2022-10-02T19:47:45.618Z,13.71
2022-10-02T19:50:27.905Z,13.67
2022-10-02T19:52:59.853Z,13.48
2022-10-02T19:55:32.448Z,13.35
2022-10-02T19:58:23.434Z,13.23
2022-10-02T20:00:53.104Z,13.17
2022-10-02T20:03:25.064Z,13.19
2022-10-02T20:05:57.278Z,13.21
2022-10-02T20:08:30.785Z,13.23
2022-10-02T20:10:57.963Z,13.23
2022-10-02T20:13:37.088Z,13.20
2022-10-02T20:16:37.166Z,13.14
2022-10-02T20:19:07.663Z,13.03
2022-10-02T20:21:44.936Z,13.02
2022-10-02T20:24:24.858Z,13.02
2022-10-02T20:26:55.999Z,13.03
2022-10-02T20:29:31.592Z,13.03
2022-10-02T20:32:08.250Z,13.01
2022-10-02T20:34:49.813Z,13.01
2022-10-02T20:37:23.621Z,12.99
2022-10-02T20:40:00.032Z,12.99
2022-10-02T20:42:58.326Z,13.00
2022-10-02T20:45:37.332Z,12.99
2022-10-02T20:48:26.027Z,12.96
2022-10-02T20:51:01.929Z,12.95
2022-10-02T20:54:09.905Z,12.94
2022-10-02T20:56:42.334Z,12.92
2022-10-02T20:59:53.033Z,12.91
2022-10-02T21:02:38.847Z,12.91
2022-10-02T21:05:31.113Z,12.91
2022-10-02T21:08:19.084Z,12.91
2022-10-02T21:10:51.873Z,12.91
2022-10-02T21:13:24.296Z,12.90
2022-10-02T21:16:10.980Z,12.89
2022-10-02T21:19:04.469Z,12.85
2022-10-02T21:22:09.828Z,12.85
2022-10-02T21:25:02.924Z,12.84
2022-10-02T21:27:54.422Z,12.84
2022-10-02T21:30:22.600Z,12.81
2022-10-02T21:33:14.484Z,12.79
2022-10-02T21:35:50.328Z,12.74
2022-10-02T21:38:37.195Z,12.71
2022-10-02T21:41:22.616Z,12.68
2022-10-02T21:44:16.408Z,12.66
2022-10-02T21:47:07.654Z,12.63
2022-10-02T21:49:58.073Z,12.59
2022-10-02T21:52:52.678Z,12.54
2022-10-02T21:55:41.238Z,12.53
2022-10-02T21:58:29.727Z,12.51
2022-10-02T22:01:30.307Z,12.52
2022-10-02T22:04:28.391Z,12.53
2022-10-02T22:07:18.009Z,12.53
2022-10-02T22:09:57.761Z,12.53
2022-10-02T22:12:39.346Z,12.54
2022-10-02T22:15:22.120Z,12.51
2022-10-02T22:18:10.094Z,12.49
2022-10-02T22:20:39.929Z,12.49
2022-10-02T22:23:38.007Z,12.46
2022-10-02T22:26:29.187Z,12.44
2022-10-02T22:29:06.654Z,12.41
2022-10-02T22:32:18.107Z,12.36
2022-10-02T22:35:06.257Z,12.33
2022-10-02T22:37:47.002Z,12.32
2022-10-02T22:40:20.489Z,12.27
2022-10-02T22:42:59.360Z,12.18
2022-10-02T22:45:37.436Z,12.16
2022-10-02T22:48:13.699Z,12.18
2022-10-02T22:50:52.786Z,12.20
2022-10-02T22:53:31.571Z,12.21
2022-10-02T22:55:58.536Z,12.24
2022-10-02T22:58:57.040Z,12.26
2022-10-02T23:01:27.565Z,12.27
2022-10-02T23:04:18.936Z,12.29
2022-10-02T23:07:04.604Z,12.30
2022-10-02T23:09:38.555Z,12.28
2022-10-02T23:12:12.163Z,12.29
2022-10-02T23:14:54.212Z,12.30
2022-10-02T23:17:47.312Z,12.29
2022-10-02T23:20:22.840Z,12.27
2022-10-02T23:23:05.687Z,12.22
2022-10-02T23:25:45.160Z,12.16
2022-10-02T23:28:30.229Z,12.11
2022-10-02T23:31:41.892Z,12.09
2022-10-02T23:34:35.340Z,12.06
2022-10-02T23:37:13.717Z,12.01
2022-10-02T23:39:51.222Z,12.03
2022-10-02T23:42:27.848Z,11.99
2022-10-02T23:45:08.377Z,12.02
2022-10-02T23:48:01.120Z,12.01
2022-10-02T23:50:49.421Z,12.01
2022-10-02T23:53:19.187Z,11.98
2022-10-02T23:56:36.292Z,11.95
2022-10-02T23:59:21.762Z,11.91
